Historique des mesures à Cassis (13260), France
Quotidien Résumé Juin 18, 2017 Unités:  Métrique    US   Métrique/US
« Précédent (Jour)
Suivant (Jour) »
Quotidien Hebdomadaire Mensuel Annuel Période au choix
  Maximum: Minimum: Moyenne:
Température: TemperatureC °C 26.2 °C 29 °C
Point de rosée: DewpointC °C 12.6 °C 15.1 °C
Humidité: Humidity % 34 % 40 %
Vitesse du vent: 0 km/h 0 km/h 3.1 km/h
Rafales: 0 km/h - -
Vent:- - SSE
Pression: PressurehPa hPa 1009.4 hPa -
Précipitations: 0.0 mm    
Historical Graphs
 
 
Mesures pour : Juin 18, 2017
Heure Temperature Point de rosée Pression Vent Vitesse du vent Rafales Humidité Pluie (par heure) Conditions
TemperatureC °C DewpointC °C PressurehPa hPa Calm     Humidity % HourlyPrecipMM mm SoftwareType W/m2
00:11 27.7 °C 14.6 °C 1009.4 hPa Calm   4.2 km/h 45 % 0.0 mm open2300-1.11 W/m2
01:10 27.5 °C 14.4 °C 1009.7 hPa Calm     45 % 0.0 mm open2300-1.11 W/m2
02:10 27.2 °C 14.2 °C 1009.4 hPa Calm     45 % 0.0 mm open2300-1.11 W/m2
03:10 26.9 °C 13.9 °C 1009.4 hPa NNW 2.3 km/h 2.3 km/h 45 % 0.0 mm open2300-1.11 W/m2
04:10 26.5 °C 13.2 °C 1009.4 hPa NW 8 km/h 8 km/h 44 % 0.0 mm open2300-1.11 W/m2
05:11 26.3 °C 13.1 °C 1009.4 hPa Calm   3.4 km/h 44 % 0.0 mm open2300-1.11 W/m2
06:10 26.2 °C 12.6 °C 1009.7 hPa North 2.9 km/h 2.9 km/h 43 % 0.0 mm open2300-1.11 W/m2
07:10 26.5 °C 12.9 °C 1010.0 hPa Calm     43 % 0.0 mm open2300-1.11 W/m2
08:10 29.6 °C 15.3 °C 1010.4 hPa Calm     42 % 0.0 mm open2300-1.11 W/m2
09:10 29.1 °C 15.2 °C 1011.1 hPa SE 3.4 km/h 5.1 km/h 43 % 0.0 mm open2300-1.11 W/m2
10:10 31.4 °C 16.9 °C 1011.1 hPa Calm   6.4 km/h 42 % 0.0 mm open2300-1.11 W/m2
11:10 35.3 °C 17.4 °C 1011.4 hPa NNE 9.8 km/h 16.3 km/h 35 % 0.0 mm open2300-1.11 W/m2
12:10 36.4 °C 17.9 °C 1012.1 hPa SE 5.1 km/h 10.3 km/h 34 % 0.0 mm open2300-1.11 W/m2
13:10 35.4 °C 18.4 °C 1012.4 hPa SSW 5.6 km/h 6.4 km/h 37 % 0.0 mm open2300-1.11 W/m2
14:11 34.5 °C 18.9 °C 1012.4 hPa Calm   4.7 km/h 40 % 0.0 mm open2300-1.11 W/m2
15:10 34.6 °C 17.7 °C 1012.1 hPa East 4.2 km/h 16.9 km/h 37 % 0.0 mm open2300-1.11 W/m2
16:10 34.2 °C 16.0 °C 1012.8 hPa SSE 8 km/h 14 km/h 34 % 0.0 mm open2300-1.11 W/m2
17:10 33.2 °C 17.3 °C 1012.8 hPa SSE 8 km/h 8 km/h 39 % 0.0 mm open2300-1.11 W/m2
18:10 31.6 °C 17.1 °C 1013.1 hPa SSE 8 km/h 9.8 km/h 42 % 0.0 mm open2300-1.11 W/m2
19:10 30.9 °C 16.2 °C 1013.4 hPa East 2.3 km/h 12.7 km/h 41 % 0.0 mm open2300-1.11 W/m2
20:10 30.4 °C 16.1 °C 1013.4 hPa South 5.1 km/h 19.6 km/h 42 % 0.0 mm open2300-1.11 W/m2
21:10 29.3 °C 15.8 °C 1014.1 hPa Calm     44 % 0.0 mm open2300-1.11 W/m2
22:10 27.8 °C 16.1 °C 1014.4 hPa East 4.2 km/h 4.2 km/h 49 % 0.0 mm open2300-1.11 W/m2
23:10 26.9 °C 15.9 °C 1015.1 hPa Calm     51 % 0.0 mm open2300-1.11 W/m2
Observations météo à CASSIS
WU-History script by Weather Underground - 1 mb